createdAt,value
2022-11-16T09:54:22.385Z,79.80
2022-11-16T09:56:27.302Z,75.47
2022-11-16T09:58:47.373Z,68.72
2022-11-16T10:01:03.362Z,92.93
2022-11-16T10:03:11.166Z,76.62
2022-11-16T10:05:15.842Z,71.95
2022-11-16T10:07:23.636Z,69.95
2022-11-16T10:09:26.963Z,70.07
2022-11-16T10:11:50.618Z,66.53
2022-11-16T10:14:04.802Z,71.65
2022-11-16T10:16:25.430Z,70.80
2022-11-16T10:18:36.467Z,65.60
2022-11-16T10:23:22.851Z,55.50
2022-11-16T10:25:50.191Z,56.60
2022-11-16T10:28:23.291Z,59.40
2022-11-16T10:30:25.640Z,58.40
2022-11-16T10:32:32.376Z,58.92
2022-11-16T10:35:01.191Z,61.60
2022-11-16T10:37:08.446Z,60.38
2022-11-16T10:39:14.680Z,56.97
2022-11-16T10:41:31.324Z,63.28
2022-11-16T10:43:34.018Z,76.45
2022-11-16T10:45:55.919Z,64.90
2022-11-16T10:48:27.850Z,66.80
2022-11-16T10:50:33.530Z,64.78
2022-11-16T10:52:35.802Z,57.20
2022-11-16T10:54:42.969Z,59.15
2022-11-16T10:56:59.201Z,66.03
2022-11-16T10:59:02.714Z,53.22
2022-11-16T11:01:10.954Z,81.43
2022-11-16T11:03:13.982Z,48.35
2022-11-16T11:05:20.438Z,60.30
2022-11-16T11:07:31.024Z,58.87
2022-11-16T11:09:35.910Z,56.27
2022-11-16T11:11:57.273Z,56.90
2022-11-16T11:14:12.004Z,52.88
2022-11-16T11:16:18.175Z,68.32
2022-11-16T11:18:23.248Z,62.35
2022-11-16T11:20:25.882Z,60.67
2022-11-16T11:22:28.457Z,59.65
2022-11-16T11:24:44.500Z,59.47
2022-11-16T11:26:57.834Z,55.83
2022-11-16T11:29:02.453Z,43.80
2022-11-16T11:31:17.317Z,50.08
2022-11-16T11:33:23.644Z,48.45
2022-11-16T11:35:31.606Z,52.40
2022-11-16T11:37:37.797Z,56.35
2022-11-16T11:39:40.386Z,56.65
2022-11-16T11:41:59.799Z,63.87
2022-11-16T11:44:04.720Z,52.13
2022-11-16T11:46:15.647Z,52.83
2022-11-16T11:48:43.173Z,63.70
2022-11-16T11:50:51.529Z,48.97
2022-11-16T11:53:21.362Z,55.17
2022-11-16T11:55:23.654Z,50.05
2022-11-16T11:57:26.692Z,56.22
2022-11-16T11:59:30.431Z,48.35
2022-11-16T12:01:48.295Z,51.08
2022-11-16T12:04:20.066Z,47.72
2022-11-16T12:06:28.085Z,54.08
2022-11-16T12:09:01.197Z,54.28
2022-11-16T12:11:22.782Z,63.58
2022-11-16T12:13:34.313Z,69.80
2022-11-16T12:16:02.237Z,48.47
2022-11-16T12:18:23.335Z,55.03
2022-11-16T12:20:47.414Z,54.33
2022-11-16T12:23:24.399Z,58.47
2022-11-16T12:25:36.118Z,62.20
2022-11-16T12:27:43.533Z,69.68
2022-11-16T12:29:55.737Z,49.20
2022-11-16T12:32:43.202Z,50.50
2022-11-16T12:34:57.403Z,47.97
2022-11-16T12:37:15.432Z,59.58
2022-11-16T12:39:24.234Z,54.97
2022-11-16T12:41:26.364Z,42.00
2022-11-16T12:43:35.111Z,53.53
2022-11-16T12:46:15.070Z,44.50
2022-11-16T12:48:34.376Z,43.30
2022-11-16T12:50:43.086Z,45.50
2022-11-16T12:53:03.959Z,44.90
2022-11-16T12:55:36.752Z,43.42
2022-11-16T12:57:51.346Z,45.42
2022-11-16T12:59:53.544Z,45.05
2022-11-16T13:02:14.116Z,38.33
2022-11-16T13:04:24.075Z,39.60
2022-11-16T13:06:47.218Z,42.13
2022-11-16T13:08:59.073Z,44.95
2022-11-16T13:11:30.494Z,49.60
2022-11-16T13:15:53.125Z,44.78
2022-11-16T13:18:00.193Z,46.97
2022-11-16T13:20:17.657Z,35.58
2022-11-16T13:22:24.262Z,49.00
2022-11-16T13:24:38.849Z,41.40
2022-11-16T13:27:10.282Z,41.15
2022-11-16T13:29:30.879Z,41.88
2022-11-16T13:31:33.349Z,41.47
2022-11-16T13:33:51.281Z,43.13
2022-11-16T13:35:53.861Z,35.45
2022-11-16T13:37:56.441Z,42.95
2022-11-16T13:39:58.774Z,38.75
2022-11-16T13:42:14.000Z,40.85
2022-11-16T13:44:16.449Z,44.47
2022-11-16T13:46:53.642Z,37.65
2022-11-16T13:48:45.715Z,39.67
2022-11-16T13:50:57.925Z,35.15
2022-11-16T13:55:40.804Z,36.67
2022-11-16T13:57:52.598Z,37.97
2022-11-16T14:00:27.206Z,33.92
2022-11-16T14:02:42.781Z,33.90
2022-11-16T14:05:00.336Z,32.40
2022-11-16T14:07:02.724Z,38.45
2022-11-16T14:09:43.857Z,34.30
2022-11-16T14:11:46.118Z,36.92
2022-11-16T14:13:48.972Z,32.35
2022-11-16T14:16:17.194Z,30.10
2022-11-16T14:18:37.032Z,33.15
2022-11-16T14:21:14.567Z,33.17
2022-11-16T14:23:44.540Z,32.58
2022-11-16T14:26:02.424Z,39.78
2022-11-16T14:28:19.583Z,40.47
2022-11-16T14:30:30.586Z,34.25
2022-11-16T14:32:44.379Z,35.65
2022-11-16T14:34:49.078Z,30.60
2022-11-16T14:36:52.909Z,34.88
2022-11-16T14:38:55.190Z,35.80
2022-11-16T14:41:00.106Z,32.28
2022-11-16T14:43:23.034Z,35.03
2022-11-16T14:45:31.134Z,31.52
2022-11-16T14:47:36.555Z,58.30
2022-11-16T14:49:43.226Z,49.40
2022-11-16T14:51:50.086Z,37.20
2022-11-16T14:53:59.881Z,31.67
2022-11-16T14:56:08.471Z,32.75
2022-11-16T14:58:22.047Z,29.60
2022-11-16T15:00:30.319Z,30.10
2022-11-16T15:02:34.383Z,27.60
2022-11-16T15:04:38.821Z,30.50
2022-11-16T15:06:45.693Z,32.10
2022-11-16T15:08:54.222Z,31.42
2022-11-16T15:10:57.053Z,32.25
2022-11-16T15:12:59.440Z,28.55
2022-11-16T15:15:07.297Z,34.78
2022-11-16T15:17:16.367Z,30.62
2022-11-16T15:19:19.560Z,34.67
2022-11-16T15:21:23.300Z,33.97
2022-11-16T15:23:30.441Z,31.70
2022-11-16T15:25:40.605Z,30.83
2022-11-16T15:27:43.367Z,32.17
2022-11-16T15:29:45.850Z,32.78
2022-11-16T15:31:48.846Z,36.45
2022-11-16T15:33:52.041Z,34.58
2022-11-16T15:35:55.684Z,34.47
2022-11-16T15:38:20.015Z,34.05
2022-11-16T15:40:22.674Z,31.70
2022-11-16T15:42:27.049Z,30.30
2022-11-16T15:44:31.562Z,38.00
2022-11-16T15:46:35.622Z,30.17
2022-11-16T15:48:39.070Z,32.85
2022-11-16T15:50:54.106Z,27.55
2022-11-16T15:52:59.822Z,28.85
2022-11-16T15:55:05.124Z,26.25
2022-11-16T15:57:12.019Z,27.10
2022-11-16T15:59:29.991Z,30.15
2022-11-16T16:01:40.589Z,26.50
2022-11-16T16:03:59.398Z,27.33
2022-11-16T16:06:02.530Z,35.17
2022-11-16T16:08:05.790Z,30.62
2022-11-16T16:10:20.727Z,31.92
2022-11-16T16:12:28.214Z,31.67
2022-11-16T16:14:31.106Z,40.35
2022-11-16T16:16:36.992Z,39.00
2022-11-16T16:18:43.988Z,44.08
2022-11-16T16:20:48.552Z,32.50
2022-11-16T16:22:52.168Z,34.63
2022-11-16T16:24:54.713Z,29.45
2022-11-16T16:26:57.235Z,36.80
2022-11-16T16:28:59.776Z,28.90
2022-11-16T16:31:02.063Z,29.20
2022-11-16T16:33:04.579Z,29.70
2022-11-16T16:35:15.079Z,31.02
2022-11-16T16:37:17.491Z,26.00
2022-11-16T16:39:20.377Z,30.83
2022-11-16T16:41:24.783Z,25.88
2022-11-16T16:43:27.401Z,30.73
2022-11-16T16:45:43.575Z,35.85
2022-11-16T16:47:46.396Z,30.48
2022-11-16T16:49:49.463Z,35.08
2022-11-16T16:51:51.869Z,51.10
2022-11-16T16:53:54.541Z,34.25
2022-11-16T16:55:56.803Z,36.30
2022-11-16T16:57:59.498Z,30.27
2022-11-16T17:00:02.525Z,29.58
2022-11-16T17:02:05.017Z,28.23
2022-11-16T17:04:08.124Z,29.50
2022-11-16T17:06:11.065Z,42.15
2022-11-16T17:08:16.189Z,29.42
2022-11-16T17:10:19.014Z,36.05
2022-11-16T17:12:21.688Z,30.90
2022-11-16T17:14:24.655Z,30.62
2022-11-16T17:16:27.314Z,31.37
2022-11-16T17:18:30.011Z,38.95
2022-11-16T17:20:33.329Z,32.25
2022-11-16T17:22:36.026Z,31.87
2022-11-16T17:24:38.907Z,35.40
2022-11-16T17:26:41.637Z,32.03
2022-11-16T17:28:44.115Z,32.20
2022-11-16T17:30:46.884Z,33.60
2022-11-16T17:32:49.717Z,36.45
2022-11-16T17:34:52.212Z,34.92
2022-11-16T17:36:56.193Z,31.62
2022-11-16T17:38:58.809Z,30.40
2022-11-16T17:41:10.445Z,26.65
2022-11-16T17:43:13.367Z,29.95
2022-11-16T17:45:16.334Z,27.83
2022-11-16T17:47:18.919Z,34.38
2022-11-16T17:49:21.821Z,28.38
2022-11-16T17:51:25.548Z,29.77
2022-11-16T17:53:32.661Z,26.30
2022-11-16T17:55:37.520Z,30.90
2022-11-16T17:57:39.844Z,30.27
2022-11-16T17:59:44.823Z,26.05
2022-11-16T18:01:48.831Z,27.65
2022-11-16T18:03:51.750Z,32.70
2022-11-16T18:06:13.851Z,27.70
2022-11-16T18:08:17.043Z,25.50
2022-11-16T18:10:20.307Z,28.20
2022-11-16T18:12:25.892Z,26.12
2022-11-16T18:14:28.569Z,26.00
2022-11-16T18:16:33.246Z,26.45
2022-11-16T18:18:36.622Z,30.30
2022-11-16T18:20:39.517Z,37.70
2022-11-16T18:22:42.336Z,33.35
2022-11-16T18:24:44.939Z,29.63
2022-11-16T18:26:47.512Z,26.85
2022-11-16T18:28:52.318Z,34.53
2022-11-16T18:31:02.929Z,28.83
2022-11-16T18:33:05.736Z,29.73
2022-11-16T18:35:10.389Z,31.25
2022-11-16T18:37:13.038Z,30.77
2022-11-16T18:39:15.915Z,28.87
2022-11-16T18:41:21.688Z,30.80
2022-11-16T18:43:24.033Z,34.65
2022-11-16T18:45:27.422Z,32.88
2022-11-16T18:47:30.310Z,29.50
2022-11-16T18:49:33.021Z,25.65
2022-11-16T18:51:35.701Z,27.45
2022-11-16T18:53:38.978Z,24.02
2022-11-16T18:55:41.819Z,23.27
2022-11-16T18:57:44.858Z,25.75
2022-11-16T18:59:47.444Z,26.87
2022-11-16T19:01:50.112Z,24.50
2022-11-16T19:03:54.950Z,24.30
2022-11-16T19:06:03.924Z,23.95
2022-11-16T19:08:14.303Z,26.10
2022-11-16T19:10:18.089Z,24.87
2022-11-16T19:12:20.658Z,26.42
2022-11-16T19:14:23.231Z,26.98
2022-11-16T19:16:26.025Z,24.23
2022-11-16T19:18:29.087Z,28.95
2022-11-16T19:20:31.894Z,23.67
2022-11-16T19:22:35.805Z,16.48
2022-11-16T19:24:38.937Z,18.02
2022-11-16T19:26:41.681Z,18.75
2022-11-16T19:28:46.617Z,19.35
2022-11-16T19:30:49.079Z,26.70
2022-11-16T19:32:56.381Z,17.87
2022-11-16T19:34:59.116Z,20.23
2022-11-16T19:37:02.054Z,18.50
2022-11-16T19:39:05.759Z,17.00
2022-11-16T19:41:11.189Z,20.45
2022-11-16T19:43:14.219Z,26.98
2022-11-16T19:45:17.005Z,22.58
2022-11-16T19:47:19.440Z,23.05
2022-11-16T19:49:22.330Z,16.15
2022-11-16T19:51:28.000Z,17.73
2022-11-16T19:53:30.318Z,15.40
2022-11-16T19:55:34.190Z,16.37
2022-11-16T19:57:37.104Z,17.35
2022-11-16T19:59:39.910Z,16.35
2022-11-16T20:01:42.607Z,17.33
2022-11-16T20:03:46.775Z,17.50
2022-11-16T20:05:49.588Z,19.00
2022-11-16T20:07:52.454Z,21.05
2022-11-16T20:09:55.439Z,16.45
2022-11-16T20:11:59.857Z,16.87
2022-11-16T20:14:05.078Z,17.05
2022-11-16T20:16:11.566Z,20.12
2022-11-16T20:18:14.259Z,19.12
2022-11-16T20:20:17.102Z,20.98
2022-11-16T20:22:20.001Z,19.85
2022-11-16T20:24:23.122Z,13.85
2022-11-16T20:26:28.380Z,17.70
2022-11-16T20:28:37.451Z,17.30
2022-11-16T20:30:49.238Z,22.52
2022-11-16T20:32:52.063Z,14.50
2022-11-16T20:34:54.898Z,15.32
2022-11-16T20:36:57.491Z,18.52
2022-11-16T20:39:01.196Z,16.15
2022-11-16T20:41:14.772Z,17.33
2022-11-16T20:43:17.466Z,19.75
2022-11-16T20:45:19.769Z,19.48
2022-11-16T20:47:22.574Z,19.87
2022-11-16T20:49:25.049Z,16.77
2022-11-16T20:51:29.070Z,16.35
2022-11-16T20:53:32.538Z,19.02
2022-11-16T20:55:35.315Z,18.73
2022-11-16T20:57:37.961Z,21.27
2022-11-16T20:59:42.114Z,20.15
2022-11-16T21:01:47.856Z,18.98
2022-11-16T21:03:50.200Z,22.02
2022-11-16T21:05:53.000Z,19.90
2022-11-16T21:07:55.262Z,19.62
2022-11-16T21:10:16.139Z,16.75
2022-11-16T21:14:44.971Z,18.08
2022-11-16T21:16:47.277Z,16.20
2022-11-16T21:18:49.821Z,25.40
2022-11-16T21:21:02.384Z,17.23
2022-11-16T21:23:05.004Z,19.27
2022-11-16T21:25:08.025Z,17.23
2022-11-16T21:27:10.208Z,17.73
2022-11-16T21:29:12.371Z,19.23
2022-11-16T21:31:17.881Z,20.30
2022-11-16T21:33:20.128Z,18.00
2022-11-16T21:35:23.577Z,14.98
2022-11-16T21:37:26.099Z,13.52
2022-11-16T21:39:28.349Z,19.10
2022-11-16T21:41:30.976Z,15.60
2022-11-16T21:43:36.436Z,18.30
2022-11-16T21:45:38.850Z,20.20
2022-11-16T21:47:41.213Z,16.75
2022-11-16T21:50:09.789Z,15.70
2022-11-16T21:52:06.345Z,16.15
2022-11-16T21:54:08.592Z,15.60
2022-11-16T21:56:19.248Z,16.52
2022-11-16T21:58:21.510Z,16.67
2022-11-16T22:00:24.119Z,17.40
2022-11-16T22:02:26.866Z,20.20
2022-11-16T22:04:47.734Z,18.42
2022-11-16T22:07:16.075Z,17.95
2022-11-16T22:09:18.595Z,19.95
2022-11-16T22:11:22.264Z,23.52
2022-11-16T22:13:24.672Z,23.33
2022-11-16T22:15:27.714Z,20.17
2022-11-16T22:17:29.905Z,23.60
2022-11-16T22:19:32.081Z,22.42
2022-11-16T22:21:34.830Z,21.65
2022-11-16T22:23:38.246Z,24.40
2022-11-16T22:25:40.922Z,25.48
2022-11-16T22:28:13.758Z,30.45
2022-11-16T22:30:09.723Z,24.55
2022-11-16T22:32:12.011Z,28.30
2022-11-16T22:34:14.513Z,27.75
2022-11-16T22:36:16.731Z,21.80
2022-11-16T22:38:18.902Z,24.00
2022-11-16T22:40:21.390Z,22.52
2022-11-16T22:42:23.563Z,18.25
2022-11-16T22:44:25.837Z,21.05
2022-11-16T22:46:28.324Z,20.50
2022-11-16T22:48:34.910Z,20.85
2022-11-16T22:50:37.096Z,21.12
2022-11-16T22:52:39.638Z,25.83
2022-11-16T22:54:41.908Z,23.73
2022-11-16T22:56:44.245Z,23.85
2022-11-16T22:58:46.759Z,25.75
2022-11-16T23:00:48.936Z,23.95
2022-11-16T23:02:51.914Z,24.67
2022-11-16T23:04:54.364Z,23.85
2022-11-16T23:06:56.775Z,27.25
2022-11-16T23:08:59.305Z,22.23
2022-11-16T23:11:23.527Z,18.48
2022-11-16T23:13:44.273Z,35.70
2022-11-16T23:15:49.325Z,23.12
2022-11-16T23:17:51.852Z,25.30
2022-11-16T23:20:17.448Z,20.55
2022-11-16T23:22:40.766Z,24.25
2022-11-16T23:25:02.770Z,22.92
2022-11-16T23:27:23.731Z,25.67
